createdAt,value
2023-05-09T00:00:45.904Z,97138.97
2023-05-09T00:03:12.590Z,97135.47
2023-05-09T00:05:39.310Z,97127.66
2023-05-09T00:08:05.993Z,97138.97
2023-05-09T00:10:32.752Z,97129.47
2023-05-09T00:12:59.420Z,97137.75
2023-05-09T00:15:26.054Z,97135.56
2023-05-09T00:17:52.784Z,97129.16
2023-05-09T00:20:19.574Z,97120.94
2023-05-09T00:22:46.284Z,97122.59
2023-05-09T00:25:13.115Z,97123.34
2023-05-09T00:27:39.943Z,97117.09
2023-05-09T00:30:07.267Z,97121.34
2023-05-09T00:32:34.287Z,97110.75
2023-05-09T00:35:01.021Z,97113.72
2023-05-09T00:37:29.393Z,97114.63
2023-05-09T00:39:56.074Z,97110.59
2023-05-09T00:42:22.754Z,97110.59
2023-05-09T00:44:49.374Z,97101.91
2023-05-09T00:47:16.031Z,97102.72
2023-05-09T00:49:42.769Z,97105.69
2023-05-09T00:52:09.399Z,97104.03
2023-05-09T00:54:36.017Z,97104.59
2023-05-09T00:57:02.779Z,97104.59
2023-05-09T00:59:29.384Z,97102.91
2023-05-09T01:01:56.042Z,97094.22
2023-05-09T01:04:22.690Z,97089.03
2023-05-09T01:07:00.715Z,97092.56
2023-05-09T01:10:14.597Z,97082.72
2023-05-09T01:12:55.842Z,97081.72
2023-05-09T01:15:37.926Z,97082.56
2023-05-09T01:18:21.538Z,97084.09
2023-05-09T01:20:53.532Z,97087.41
2023-05-09T01:23:44.700Z,97081.91
2023-05-09T01:26:35.923Z,97076.47
2023-05-09T01:29:25.712Z,97075.31
2023-05-09T01:31:52.307Z,97069.25
2023-05-09T01:34:18.911Z,97076.78
2023-05-09T01:36:45.537Z,97072.22
2023-05-09T01:39:12.784Z,97069.16
2023-05-09T01:41:39.434Z,97057.84
2023-05-09T01:44:07.929Z,97063.84
2023-05-09T01:46:34.904Z,97068.75
2023-05-09T01:49:02.385Z,97065.56
2023-05-09T01:51:29.049Z,97061.22
2023-05-09T01:53:55.691Z,97062.53
2023-05-09T01:56:22.550Z,97058.41
2023-05-09T01:58:50.002Z,97060.56
2023-05-09T02:01:16.697Z,97056.22
2023-05-09T02:03:43.365Z,97054.56
2023-05-09T02:06:10.118Z,97063.03
2023-05-09T02:08:36.858Z,97062.69
2023-05-09T02:11:03.485Z,97064.81
2023-05-09T02:13:30.127Z,97063.75
2023-05-09T02:15:56.843Z,97064.91
2023-05-09T02:18:23.470Z,97056.78
2023-05-09T02:20:50.128Z,97061.38
2023-05-09T02:23:16.747Z,97058.94
2023-05-09T02:25:43.365Z,97053.00
2023-05-09T02:28:10.033Z,97052.44
2023-05-09T02:30:40.104Z,97053.25
2023-05-09T02:33:07.606Z,97054.91
2023-05-09T02:35:34.484Z,97063.34
2023-05-09T02:38:01.243Z,97064.41
2023-05-09T02:40:28.504Z,97062.53
2023-05-09T02:42:55.759Z,97057.84
2023-05-09T02:45:22.428Z,97061.03
2023-05-09T02:47:49.954Z,97069.50
2023-05-09T02:50:16.864Z,97071.47
2023-05-09T02:52:43.621Z,97071.94
2023-05-09T02:55:10.426Z,97062.22
2023-05-09T02:57:38.062Z,97069.25
2023-05-09T03:00:06.341Z,97061.69
2023-05-09T03:02:33.084Z,97073.44
2023-05-09T03:05:01.168Z,97072.69
2023-05-09T03:07:27.777Z,97073.53
2023-05-09T03:09:54.399Z,97073.53
2023-05-09T03:12:21.035Z,97070.91
2023-05-09T03:14:47.627Z,97073.13
2023-05-09T03:17:14.329Z,97071.00
2023-05-09T03:19:40.976Z,97063.91
2023-05-09T03:22:07.620Z,97062.28
2023-05-09T03:24:34.222Z,97048.25
2023-05-09T03:27:00.882Z,97059.06
2023-05-09T03:29:27.536Z,97058.59
2023-05-09T03:31:54.282Z,97056.22
2023-05-09T03:34:20.917Z,97048.59
2023-05-09T03:36:48.594Z,97045.50
2023-05-09T03:39:15.250Z,97038.91
2023-05-09T03:41:41.855Z,97033.25
2023-05-09T03:44:08.455Z,97032.19
2023-05-09T03:46:35.094Z,97034.41
2023-05-09T03:49:01.745Z,97030.63
2023-05-09T03:51:28.344Z,97041.53
2023-05-09T03:53:55.237Z,97041.94
2023-05-09T03:56:23.865Z,97044.09
2023-05-09T03:58:50.517Z,97037.56
2023-05-09T04:01:17.161Z,97042.78
2023-05-09T04:03:43.890Z,97028.06
2023-05-09T04:06:10.626Z,97039.47
2023-05-09T04:08:39.805Z,97038.97
2023-05-09T04:11:06.592Z,97036.25
2023-05-09T04:13:36.004Z,97040.22
2023-05-09T04:16:02.686Z,97037.28
2023-05-09T04:18:29.334Z,97040.47
2023-05-09T04:20:55.963Z,97044.31
2023-05-09T04:23:23.982Z,97044.56
2023-05-09T04:25:50.636Z,97051.28
2023-05-09T04:28:17.587Z,97039.91
2023-05-09T04:30:45.565Z,97039.81
2023-05-09T04:33:12.202Z,97041.38
2023-05-09T04:35:38.883Z,97050.16
2023-05-09T04:38:05.683Z,97047.59
2023-05-09T04:40:32.416Z,97037.34
2023-05-09T04:42:59.082Z,97032.72
2023-05-09T04:45:25.726Z,97031.03
2023-05-09T04:47:52.486Z,97032.72
2023-05-09T04:50:19.198Z,97032.06
2023-05-09T04:52:46.850Z,97029.50
2023-05-09T04:55:13.734Z,97029.59
2023-05-09T04:57:40.471Z,97028.00
2023-05-09T05:00:08.964Z,97028.34
2023-05-09T05:02:35.602Z,97031.41
2023-05-09T05:05:10.899Z,97030.75
2023-05-09T05:07:38.935Z,97029.84
2023-05-09T05:10:06.065Z,97026.94
2023-05-09T05:12:32.846Z,97033.81
2023-05-09T05:14:59.505Z,97021.09
2023-05-09T05:17:26.172Z,97028.81
2023-05-09T05:19:52.818Z,97030.13
2023-05-09T05:22:19.404Z,97031.53
2023-05-09T05:24:48.812Z,97024.44
2023-05-09T05:27:15.467Z,97024.84
2023-05-09T05:29:42.133Z,97029.75
2023-05-09T05:32:08.834Z,97030.03
2023-05-09T05:34:35.450Z,97022.75
2023-05-09T05:37:02.077Z,97031.22
2023-05-09T05:39:28.673Z,97025.56
2023-05-09T05:41:55.335Z,97024.78
2023-05-09T05:44:21.946Z,97018.31
2023-05-09T05:46:49.807Z,97021.59
2023-05-09T05:49:16.468Z,97015.75
2023-05-09T05:51:43.115Z,97023.69
2023-05-09T05:54:09.802Z,97013.13
2023-05-09T05:56:36.581Z,97010.19
2023-05-09T05:59:03.176Z,97013.78
2023-05-09T06:01:29.922Z,97013.88
2023-05-09T06:03:56.634Z,97001.53
2023-05-09T06:06:23.396Z,97001.38
2023-05-09T06:08:50.025Z,97007.38
2023-05-09T06:11:16.830Z,96997.03
2023-05-09T06:13:43.813Z,97000.00
2023-05-09T06:18:40.102Z,96991.03
2023-05-09T06:21:06.940Z,96978.19
2023-05-09T06:23:33.648Z,96980.41
2023-05-09T06:26:00.394Z,96985.28
2023-05-09T06:28:27.000Z,96975.56
2023-05-09T06:30:53.704Z,96978.31
2023-05-09T06:33:21.464Z,96981.28
2023-05-09T06:35:48.307Z,96973.63
2023-05-09T06:38:14.954Z,96972.06
2023-05-09T06:40:41.636Z,96964.69
2023-05-09T06:43:08.249Z,96966.84
2023-05-09T06:45:34.910Z,96964.16
2023-05-09T06:48:01.711Z,96966.59
2023-05-09T06:50:29.760Z,96966.25
2023-05-09T06:52:57.406Z,96955.38
2023-05-09T06:55:24.032Z,96954.81
2023-05-09T06:57:50.665Z,96957.03
2023-05-09T07:00:17.491Z,96956.28
2023-05-09T07:02:44.163Z,96948.97
2023-05-09T07:05:10.917Z,96948.22
2023-05-09T07:07:37.642Z,96945.56
2023-05-09T07:10:11.195Z,96938.13
2023-05-09T07:12:38.980Z,96933.13
2023-05-09T07:15:06.098Z,96929.31
2023-05-09T07:17:32.723Z,96924.97
2023-05-09T07:19:59.366Z,96922.84
2023-05-09T07:22:26.057Z,96917.69
2023-05-09T07:24:52.747Z,96916.09
2023-05-09T07:27:19.410Z,96917.19
2023-05-09T07:29:47.097Z,96911.75
2023-05-09T07:32:13.912Z,96903.03
2023-05-09T07:34:41.210Z,96909.81
2023-05-09T07:37:09.104Z,96904.13
2023-05-09T07:39:36.299Z,96896.78
2023-05-09T07:42:02.967Z,96898.19
2023-05-09T07:44:29.768Z,96891.34
2023-05-09T07:46:57.384Z,96885.66
2023-05-09T07:49:24.027Z,96891.66
2023-05-09T07:51:50.816Z,96884.56
2023-05-09T07:54:17.444Z,96890.03
2023-05-09T07:56:44.556Z,96880.28
2023-05-09T07:59:11.225Z,96874.56
2023-05-09T08:01:37.995Z,96874.56
2023-05-09T08:04:04.799Z,96868.28
2023-05-09T08:06:31.467Z,96871.28
2023-05-09T08:08:58.201Z,96865.28
2023-05-09T08:11:24.809Z,96866.66
2023-05-09T08:13:51.525Z,96859.59
2023-05-09T08:16:18.219Z,96857.38
2023-05-09T08:18:45.413Z,96854.09
2023-05-09T08:21:12.083Z,96845.59
2023-05-09T08:23:38.850Z,96847.25
2023-05-09T08:26:05.659Z,96845.31
2023-05-09T08:28:32.258Z,96843.16
2023-05-09T08:30:59.000Z,96834.47
2023-05-09T08:33:25.737Z,96829.81
2023-05-09T08:35:54.832Z,96835.81
2023-05-09T08:38:21.523Z,96831.69
2023-05-09T08:40:48.265Z,96835.81
2023-05-09T08:43:16.142Z,96824.09
2023-05-09T08:45:53.409Z,96830.59
2023-05-09T08:48:20.021Z,96829.47
2023-05-09T08:50:46.624Z,96832.78
2023-05-09T08:53:13.934Z,96818.00
2023-05-09T08:55:40.942Z,96818.31
2023-05-09T08:58:08.291Z,96820.50
2023-05-09T09:00:37.262Z,96828.94
2023-05-09T09:03:04.798Z,96817.00
2023-05-09T09:05:41.169Z,96813.97
2023-05-09T09:08:09.047Z,96809.38
2023-05-09T09:10:36.103Z,96802.53
2023-05-09T09:13:03.487Z,96801.13
2023-05-09T09:15:33.595Z,96795.91
2023-05-09T09:18:01.174Z,96784.75
2023-05-09T09:20:29.709Z,96783.41
2023-05-09T09:23:03.437Z,96784.47
2023-05-09T09:25:32.574Z,96780.41
2023-05-09T09:27:59.189Z,96788.53
2023-05-09T09:30:27.571Z,96779.25
2023-05-09T09:32:54.275Z,96778.59
2023-05-09T09:35:22.333Z,96777.47
2023-05-09T09:37:51.974Z,96768.66
2023-05-09T09:40:18.644Z,96762.63
2023-05-09T09:42:47.688Z,96760.84
2023-05-09T09:45:16.359Z,96758.81
2023-05-09T09:47:44.812Z,96763.34
2023-05-09T09:50:11.949Z,96751.97
2023-05-09T09:52:55.787Z,96755.41
2023-05-09T09:55:23.969Z,96749.13
2023-05-09T09:57:52.795Z,96748.34
2023-05-09T10:00:30.730Z,96748.53
2023-05-09T10:02:58.629Z,96738.16
2023-05-09T10:05:28.780Z,96730.53
2023-05-09T10:08:03.514Z,96713.63
2023-05-09T10:10:32.293Z,96716.41
2023-05-09T10:13:01.526Z,96712.00
2023-05-09T10:15:33.468Z,96706.53
2023-05-09T10:18:07.706Z,96692.16
2023-05-09T10:20:34.539Z,96700.03
2023-05-09T10:23:02.090Z,96693.94
2023-05-09T10:25:38.045Z,96687.84
2023-05-09T10:28:06.666Z,96682.16
2023-05-09T10:30:35.903Z,96677.94
2023-05-09T10:33:10.477Z,96676.59
2023-05-09T10:35:43.644Z,96672.31
2023-05-09T10:38:10.835Z,96665.78
2023-05-09T10:40:37.606Z,96666.03
2023-05-09T10:43:04.680Z,96651.69
2023-05-09T10:45:31.835Z,96658.19
2023-05-09T10:47:58.643Z,96649.94
2023-05-09T10:50:25.290Z,96647.97
2023-05-09T10:53:04.116Z,96641.72
2023-05-09T10:55:48.042Z,96639.00
2023-05-09T10:58:25.204Z,96630.78
2023-05-09T11:00:52.444Z,96637.41
2023-05-09T11:03:20.179Z,96633.00
2023-05-09T11:05:51.941Z,96635.94
2023-05-09T11:08:36.746Z,96633.81
2023-05-09T11:11:06.767Z,96629.50
2023-05-09T11:13:37.826Z,96617.59
2023-05-09T11:16:06.122Z,96623.00
2023-05-09T11:18:32.873Z,96627.44
2023-05-09T11:21:00.934Z,96620.72
2023-05-09T11:23:28.102Z,96619.13
2023-05-09T11:25:54.834Z,96610.78
2023-05-09T11:28:31.655Z,96607.34
2023-05-09T11:31:11.079Z,96609.25
2023-05-09T11:33:37.979Z,96587.25
2023-05-09T11:36:29.453Z,96605.88
2023-05-09T11:39:05.230Z,96609.34
2023-05-09T11:41:32.417Z,96604.03
2023-05-09T11:43:59.134Z,96609.41
2023-05-09T11:46:26.970Z,96601.03
2023-05-09T11:48:53.740Z,96593.03
2023-05-09T11:51:20.349Z,96596.34
2023-05-09T11:53:50.082Z,96593.09
2023-05-09T11:56:17.945Z,96594.22
2023-05-09T11:58:44.674Z,96580.19
2023-05-09T12:01:12.317Z,96581.81
2023-05-09T12:03:45.297Z,96579.16
2023-05-09T12:06:18.051Z,96569.09
2023-05-09T12:08:47.734Z,96568.66
2023-05-09T12:11:14.736Z,96568.25
2023-05-09T12:13:45.878Z,96561.94
2023-05-09T12:16:12.629Z,96560.03
2023-05-09T12:18:43.674Z,96566.59
2023-05-09T12:21:10.277Z,96553.56
2023-05-09T12:23:37.023Z,96551.22
2023-05-09T12:26:03.638Z,96556.78
2023-05-09T12:28:30.533Z,96545.47
2023-05-09T12:30:57.693Z,96547.53
2023-05-09T12:33:25.062Z,96541.25
2023-05-09T12:36:07.350Z,96538.50
2023-05-09T12:38:34.109Z,96538.19
2023-05-09T12:41:03.652Z,96547.06
2023-05-09T12:43:37.456Z,96540.59
2023-05-09T12:46:04.418Z,96543.31
2023-05-09T12:48:39.645Z,96539.34
2023-05-09T12:51:06.491Z,96525.84
2023-05-09T12:53:37.683Z,96525.31
2023-05-09T12:56:05.311Z,96523.41
2023-05-09T12:58:32.918Z,96519.50
2023-05-09T13:01:00.134Z,96536.94
2023-05-09T13:03:28.074Z,96529.84
2023-05-09T13:06:03.608Z,96539.66
2023-05-09T13:08:30.532Z,96542.41
2023-05-09T13:11:07.886Z,96539.03
2023-05-09T13:13:41.966Z,96541.59
2023-05-09T13:16:10.384Z,96543.06
2023-05-09T13:18:38.816Z,96525.13
2023-05-09T13:21:05.471Z,96533.53
2023-05-09T13:23:32.544Z,96532.44
2023-05-09T13:25:59.369Z,96530.94
2023-05-09T13:28:26.367Z,96527.28
2023-05-09T13:30:53.127Z,96527.19
2023-05-09T13:33:25.641Z,96530.91
2023-05-09T13:35:53.257Z,96528.94
2023-05-09T13:38:20.136Z,96530.50
2023-05-09T13:40:46.845Z,96528.03
2023-05-09T13:43:13.497Z,96525.88
2023-05-09T13:45:40.100Z,96534.03
2023-05-09T13:48:06.838Z,96528.13
2023-05-09T13:50:34.001Z,96538.78
2023-05-09T13:53:00.972Z,96544.47
2023-05-09T13:55:27.698Z,96542.84
2023-05-09T13:57:54.407Z,96535.22
2023-05-09T14:00:21.684Z,96530.31
2023-05-09T14:02:48.538Z,96541.78
2023-05-09T14:05:15.456Z,96535.81
2023-05-09T14:07:42.221Z,96548.44
2023-05-09T14:10:11.801Z,96538.06
2023-05-09T14:12:40.310Z,96536.94
2023-05-09T14:15:09.908Z,96540.19
2023-05-09T14:17:36.760Z,96534.69
2023-05-09T14:20:03.714Z,96534.75
2023-05-09T14:22:30.388Z,96536.78
2023-05-09T14:24:57.316Z,96539.84
2023-05-09T14:27:24.391Z,96535.81
2023-05-09T14:29:51.063Z,96534.28
2023-05-09T14:32:18.783Z,96523.50
2023-05-09T14:34:46.682Z,96523.69
2023-05-09T14:37:13.322Z,96523.41
2023-05-09T14:39:40.662Z,96521.56
2023-05-09T14:42:07.390Z,96518.25
2023-05-09T14:44:34.805Z,96500.09
2023-05-09T14:47:02.478Z,96519.88
2023-05-09T14:49:29.224Z,96517.69
2023-05-09T14:51:56.897Z,96524.50
2023-05-09T14:54:23.576Z,96524.28
2023-05-09T14:56:50.600Z,96520.72
2023-05-09T14:59:17.350Z,96516.38
2023-05-09T15:01:45.006Z,96517.75
2023-05-09T15:04:11.764Z,96512.41
2023-05-09T15:06:38.496Z,96515.41
2023-05-09T15:09:07.287Z,96515.47
2023-05-09T15:11:46.863Z,96526.03
2023-05-09T15:14:14.903Z,96527.72
2023-05-09T15:16:41.697Z,96519.28
2023-05-09T15:19:08.467Z,96527.50
2023-05-09T15:21:35.538Z,96522.69
2023-05-09T15:24:02.255Z,96531.66
2023-05-09T15:26:29.121Z,96527.91
2023-05-09T15:28:55.955Z,96521.41
2023-05-09T15:31:22.753Z,96532.28
2023-05-09T15:33:52.156Z,96531.75
2023-05-09T15:36:21.449Z,96529.03
2023-05-09T15:38:48.249Z,96528.72
2023-05-09T15:41:15.423Z,96531.72
2023-05-09T15:43:42.127Z,96529.00
2023-05-09T15:46:09.668Z,96529.56
2023-05-09T15:48:36.378Z,96522.22
2023-05-09T15:51:03.106Z,96521.41
2023-05-09T15:53:29.952Z,96530.66
2023-05-09T15:55:56.667Z,96532.81
2023-05-09T15:58:23.507Z,96520.63
2023-05-09T16:00:50.361Z,96522.22
2023-05-09T16:03:18.026Z,96519.78
2023-05-09T16:05:44.823Z,96519.50
2023-05-09T16:08:11.534Z,96521.97
2023-05-09T16:10:38.367Z,96513.25
2023-05-09T16:13:05.041Z,96514.38
2023-05-09T16:15:33.044Z,96510.31
2023-05-09T16:17:59.755Z,96515.72
2023-05-09T16:20:27.529Z,96512.19
2023-05-09T16:22:54.188Z,96504.03
2023-05-09T16:25:20.794Z,96509.50
2023-05-09T16:27:47.388Z,96508.66
2023-05-09T16:30:14.865Z,96508.66
2023-05-09T16:32:41.835Z,96505.69
2023-05-09T16:35:08.657Z,96504.06
2023-05-09T16:37:35.701Z,96512.75
2023-05-09T16:40:02.520Z,96524.16
2023-05-09T16:42:29.377Z,96513.28
2023-05-09T16:44:56.909Z,96513.28
2023-05-09T16:47:23.677Z,96519.25
2023-05-09T16:49:50.569Z,96514.63
2023-05-09T16:52:17.242Z,96516.00
2023-05-09T16:54:43.925Z,96513.84
2023-05-09T16:57:10.533Z,96519.81
2023-05-09T16:59:37.192Z,96519.53
2023-05-09T17:02:04.257Z,96519.75
2023-05-09T17:04:30.983Z,96526.78
2023-05-09T17:06:57.665Z,96525.72
2023-05-09T17:09:24.617Z,96533.09
2023-05-09T17:11:51.316Z,96527.09
2023-05-09T17:14:17.940Z,96531.69
2023-05-09T17:16:44.858Z,96526.78
2023-05-09T17:19:11.501Z,96536.59
2023-05-09T17:21:38.422Z,96529.50
2023-05-09T17:24:05.164Z,96531.94
2023-05-09T17:26:31.839Z,96534.69
2023-05-09T17:28:58.508Z,96531.94
2023-05-09T17:31:25.192Z,96536.50
2023-05-09T17:33:51.856Z,96537.56
2023-05-09T17:36:18.694Z,96545.69
2023-05-09T17:38:45.359Z,96542.44
2023-05-09T17:41:12.016Z,96546.78
2023-05-09T17:43:38.655Z,96553.00
2023-05-09T17:46:05.310Z,96552.97
2023-05-09T17:48:31.940Z,96557.31
2023-05-09T17:50:58.599Z,96559.88
2023-05-09T17:53:25.297Z,96567.09
2023-05-09T17:55:51.957Z,96564.84
2023-05-09T17:58:18.619Z,96564.41
2023-05-09T18:00:45.236Z,96569.53
2023-05-09T18:03:11.945Z,96567.25
2023-05-09T18:05:38.679Z,96569.03
2023-05-09T18:08:05.410Z,96575.59
2023-05-09T18:10:32.061Z,96572.59
2023-05-09T18:12:58.751Z,96577.78
2023-05-09T18:15:25.501Z,96579.22
2023-05-09T18:17:52.221Z,96578.53
2023-05-09T18:20:18.986Z,96582.31
2023-05-09T18:22:46.514Z,96586.47
2023-05-09T18:25:13.361Z,96585.16
2023-05-09T18:27:40.000Z,96591.19
2023-05-09T18:30:07.429Z,96587.38
2023-05-09T18:32:34.114Z,96590.66
2023-05-09T18:35:00.785Z,96587.41
2023-05-09T18:37:27.478Z,96593.94
2023-05-09T18:39:54.113Z,96585.81
2023-05-09T18:42:20.840Z,96583.66
2023-05-09T18:44:47.574Z,96581.50
2023-05-09T18:47:14.256Z,96589.63
2023-05-09T18:49:40.980Z,96586.66
2023-05-09T18:52:08.067Z,96582.88
2023-05-09T18:54:34.709Z,96579.34
2023-05-09T18:57:01.834Z,96582.06
2023-05-09T18:59:28.506Z,96582.88
2023-05-09T19:01:55.535Z,96588.56
2023-05-09T19:04:22.256Z,96585.03
2023-05-09T19:06:49.035Z,96588.53
2023-05-09T19:09:15.645Z,96590.41
2023-05-09T19:11:42.245Z,96588.50
2023-05-09T19:14:08.870Z,96584.47
2023-05-09T19:16:35.634Z,96586.94
2023-05-09T19:19:02.296Z,96582.03
2023-05-09T19:21:28.965Z,96584.47
2023-05-09T19:23:55.528Z,96583.69
2023-05-09T19:26:22.129Z,96581.75
2023-05-09T19:28:48.905Z,96582.00
2023-05-09T19:31:15.696Z,96585.22
2023-05-09T19:33:43.205Z,96589.56
2023-05-09T19:36:10.079Z,96600.44
2023-05-09T19:38:36.722Z,96606.94
2023-05-09T19:41:04.953Z,96618.91
2023-05-09T19:43:31.865Z,96621.28
2023-05-09T19:45:58.528Z,96621.00
2023-05-09T19:48:25.163Z,96629.53
2023-05-09T19:50:56.002Z,96640.72
2023-05-09T19:53:22.579Z,96643.69
2023-05-09T19:55:49.178Z,96649.88
2023-05-09T19:58:17.654Z,96649.94
2023-05-09T20:00:44.791Z,96659.72
2023-05-09T20:03:11.474Z,96651.94
2023-05-09T20:05:56.140Z,96656.81
2023-05-09T20:08:22.686Z,96653.63
2023-05-09T20:10:49.227Z,96658.63
2023-05-09T20:13:15.839Z,96652.66
2023-05-09T20:15:42.402Z,96643.66
2023-05-09T20:18:09.016Z,96647.63
2023-05-09T20:20:35.606Z,96643.75
2023-05-09T20:23:02.194Z,96648.38
2023-05-09T20:25:28.728Z,96648.97
2023-05-09T20:27:55.342Z,96651.41
2023-05-09T20:30:22.189Z,96638.19
2023-05-09T20:32:48.910Z,96641.50
2023-05-09T20:35:15.626Z,96648.28
2023-05-09T20:37:42.196Z,96649.63
2023-05-09T20:40:09.069Z,96643.34
2023-05-09T20:42:35.901Z,96646.63
2023-05-09T20:45:02.460Z,96643.97
2023-05-09T20:47:29.049Z,96651.66
2023-05-09T20:49:58.106Z,96645.09
2023-05-09T20:52:24.977Z,96651.00
2023-05-09T20:54:51.576Z,96658.34
2023-05-09T20:57:18.142Z,96653.00
2023-05-09T20:59:44.710Z,96655.50
2023-05-09T21:02:11.270Z,96653.19
2023-05-09T21:04:37.884Z,96658.13
2023-05-09T21:07:04.469Z,96661.34
2023-05-09T21:09:31.016Z,96663.88
2023-05-09T21:11:57.553Z,96661.91
2023-05-09T21:14:24.121Z,96666.31
2023-05-09T21:16:50.726Z,96669.28
2023-05-09T21:19:17.304Z,96669.00
2023-05-09T21:21:43.842Z,96672.28
2023-05-09T21:24:10.384Z,96664.19
2023-05-09T21:26:36.924Z,96666.34
2023-05-09T21:29:03.522Z,96671.25
2023-05-09T21:31:30.106Z,96665.53
2023-05-09T21:33:57.620Z,96679.31
2023-05-09T21:36:24.183Z,96674.72
2023-05-09T21:38:50.753Z,96677.63
2023-05-09T21:41:17.296Z,96676.47
2023-05-09T21:43:43.848Z,96682.16
2023-05-09T21:46:10.560Z,96680.28
2023-05-09T21:48:37.172Z,96679.78
2023-05-09T21:51:03.984Z,96682.47
2023-05-09T21:53:30.539Z,96687.94
2023-05-09T21:55:57.120Z,96677.94
2023-05-09T21:58:23.674Z,96687.06
2023-05-09T22:00:50.238Z,96685.19
2023-05-09T22:03:16.908Z,96682.75
2023-05-09T22:05:43.603Z,96678.13
2023-05-09T22:08:10.163Z,96680.28
2023-05-09T22:10:36.718Z,96682.63
2023-05-09T22:13:03.356Z,96688.00
2023-05-09T22:15:30.025Z,96683.63
2023-05-09T22:17:56.663Z,96682.34
2023-05-09T22:20:23.406Z,96684.19
2023-05-09T22:22:49.948Z,96686.34
2023-05-09T22:25:16.598Z,96681.19
2023-05-09T22:27:43.137Z,96688.22
2023-05-09T22:30:09.913Z,96694.47
2023-05-09T22:32:36.521Z,96694.78
2023-05-09T22:35:03.170Z,96695.84
2023-05-09T22:37:29.987Z,96693.69
2023-05-09T22:39:56.576Z,96700.44
2023-05-09T22:42:23.185Z,96697.66
2023-05-09T22:44:49.868Z,96690.75
2023-05-09T22:47:16.520Z,96693.97
2023-05-09T22:49:44.570Z,96708.22
2023-05-09T22:52:12.904Z,96715.22
2023-05-09T22:54:39.500Z,96719.53
2023-05-09T22:57:06.156Z,96718.28
2023-05-09T22:59:33.110Z,96724.44
2023-05-09T23:01:59.780Z,96722.00
2023-05-09T23:04:26.472Z,96715.50
2023-05-09T23:06:53.105Z,96713.38
2023-05-09T23:09:19.717Z,96710.03
2023-05-09T23:11:46.371Z,96717.16
2023-05-09T23:14:13.036Z,96711.19
2023-05-09T23:16:39.731Z,96718.22
2023-05-09T23:19:06.388Z,96724.13
2023-05-09T23:21:33.001Z,96720.38
2023-05-09T23:23:59.768Z,96727.09
2023-05-09T23:26:26.434Z,96722.50
2023-05-09T23:28:53.045Z,96723.91
2023-05-09T23:31:19.714Z,96719.88
2023-05-09T23:33:46.374Z,96714.78
2023-05-09T23:36:13.023Z,96717.47
2023-05-09T23:38:39.666Z,96703.88
2023-05-09T23:41:06.305Z,96703.44
2023-05-09T23:43:32.935Z,96687.09
2023-05-09T23:45:59.537Z,96691.88
2023-05-09T23:48:26.160Z,96681.34
2023-05-09T23:50:52.802Z,96688.63
2023-05-09T23:53:19.447Z,96681.34
2023-05-09T23:55:46.109Z,96682.06
2023-05-09T23:58:12.725Z,96673.63
